Latest Coastal Weather Observations for Onslow Airport

IDW60701

Issued at 8:22 pm WST Thursday 28 July 2016 (issued every 10 minutes, with the page automatically refreshed every 10 minutes)

About coastal observations | Map of coastal stations | Coastal observations for WA | Marine services | Other Formats
Station Details ID: 005017 Name: ONSLOW AIRPORT Lat: -21.67 Lon: 115.11 Height: 10.5 m
Data from the previous 72 hours. | See also: Recent months at Onslow Airport
Date/Time
WST
Temp
°C
Wind Pressure Rain since
9am
mm
Weather Cloud Vis
km
Sea
Height
m
Swell
Dir  Spd
kts
Gust
kts
hPa Trend Height
m
Period
s
Dir
28/08:00pm 20.8 N 8 10 1018.8 - 0.0 - - - - - - -
28/07:30pm 21.1 N 8 10 1018.7 - 0.0 - - - - - - -
28/07:00pm 21.3 NNE 7 9 1018.5 - 0.0 - - - - - - -
28/06:30pm 21.7 NNE 10 13 1018.0 - 0.0 - - - - - - -
28/06:00pm 22.2 NNE 12 15 1017.7 - 0.0 - - - - - - -
28/05:30pm 22.9 NNE 13 17 1017.5 - 0.0 - - - - - - -
28/05:00pm 23.7 NNE 15 19 1017.4 - 0.0 - - - - - - -
28/04:30pm 24.3 NNE 15 21 1017.1 - 0.0 - - - - - - -
28/04:00pm 25.0 NNE 16 22 1017.1 - 0.0 - - - - - - -
28/03:30pm 25.6 NNE 17 24 1017.0 - 0.0 - - - - - - -
28/03:00pm 25.6 NNE 17 21 1017.0 - 0.0 - - - - - - -
28/02:30pm 26.4 NNE 15 21 1017.0 - 0.0 - - - - - - -
28/02:00pm 26.4 NNE 15 20 1017.1 - 0.0 - - - - - - -
28/01:30pm 26.6 NNE 15 20 1017.4 - 0.0 - - - - - - -
28/01:00pm 26.5 NNE 14 18 1017.8 - 0.0 - - - - - - -
28/12:30pm 26.4 NNE 14 21 1018.1 - 0.0 - - - - - - -
28/12:00pm 26.3 NNE 16 20 1018.3 - 0.0 - - - - - - -
28/11:30am 27.1 NNE 16 20 1018.5 - 0.0 - - - - - - -
28/11:00am 26.9 NE 17 21 1018.8 - 0.0 - - - - - - -
28/10:30am 26.9 ENE 17 25 1019.1 - 0.0 - - - - - - -
28/10:00am 25.1 ENE 15 18 1019.4 - 0.0 - - - - - - -
28/09:30am 23.4 ENE 14 17 1019.7 - 0.0 - - - - - - -
28/09:00am 21.5 E 11 13 1020.0 - 0.0 - - - - - - -
28/08:30am 19.8 ESE 8 10 1019.7 - 0.0 - - - - - - -
28/08:00am 18.4 ESE 7 9 1019.7 - 0.0 - - - - - - -
28/07:30am 16.7 ESE 6 7 1019.4 - 0.0 - - - - - - -
28/07:00am 15.6 E 8 8 1019.0 - 0.0 - - - - - - -
28/06:30am 14.8 ESE 8 9 1018.9 - 0.0 - - - - - - -
28/06:00am 14.9 ESE 8 9 1018.7 - 0.0 - - - - - - -
28/05:30am 15.2 ESE 8 9 1018.6 - 0.0 - - - - - - -
28/05:00am 14.9 ESE 5 6 1018.5 - 0.0 - - - - - - -
28/04:30am 15.0 SE 7 9 1018.5 - 0.0 - - - - - - -
28/04:00am 14.9 SSE 7 9 1018.5 - 0.0 - - - - - - -
28/03:30am 15.7 SSE 7 8 1018.4 - 0.0 - - - - - - -
28/03:00am 16.2 SSE 8 9 1018.2 - 0.0 - - - - - - -
28/02:30am 16.1 S 7 9 1018.3 - 0.0 - - - - - - -
28/02:00am 16.8 S 7 9 1018.6 - 0.0 - - - - - - -
28/01:30am 16.9 SSE 6 8 1018.7 - 0.0 - - - - - - -
28/01:00am 17.0 S 7 9 1018.8 - 0.0 - - - - - - -
28/12:30am 16.7 SSW 7 8 1018.8 - 0.0 - - - - - - -
28/12:00am 17.2 SSW 7 9 1018.8 - 0.0 - - - - - - -
 
Date/Time
WST
Temp
°C
Wind Pressure Rain since
9am
mm
Weather Cloud Vis
km
Sea
Height
m
Swell
Dir  Spd
kts
Gust
kts
hPa Trend Height
m
Period
s
Dir
27/11:30pm 17.7 SSW 9 11 1019.0 - 0.0 - - - - - - -
27/11:00pm 18.1 SSW 8 9 1019.1 - 0.0 - - - - - - -
27/10:30pm 18.1 SSW 8 9 1019.3 - 0.0 - - - - - - -
27/10:00pm 18.5 SSW 9 10 1019.3 - 0.0 - - - - - - -
27/09:30pm 18.6 SW 8 9 1019.3 - 0.0 - - - - - - -
27/09:00pm 18.6 SW 8 10 1019.2 - 0.0 - - - - - - -
27/08:30pm 18.1 SW 6 8 1018.9 - 0.0 - - - - - - -
27/08:00pm 18.4 W 7 8 1018.6 - 0.0 - - - - - - -
27/07:30pm 18.6 WSW 6 8 1018.4 - 0.0 - - - - - - -
27/07:00pm 19.0 WNW 5 6 1018.0 - 0.0 - - - - - - -
27/06:30pm 19.3 W 5 6 1017.8 - 0.0 - - - - - - -
27/06:00pm 20.5 WNW 7 7 1017.6 - 0.0 - - - - - - -
27/05:30pm 22.0 NW 7 8 1017.2 - 0.0 - - - - - - -
27/05:00pm 23.4 WNW 7 9 1017.0 - 0.0 - - - - - - -
27/04:30pm 24.3 NW 7 9 1016.8 - 0.0 - - - - - - -
27/04:00pm 26.0 NNW 5 7 1016.8 - 0.0 - - - - - - -
27/03:30pm 26.6 WNW 5 8 1016.8 - 0.0 - - - - - - -
27/03:00pm 26.9 NW 5 7 1017.0 - 0.0 - - - - - - -
27/02:30pm 26.4 NNW 5 7 1017.2 - 0.0 - - - - - - -
27/02:00pm 26.7 N 7 10 1017.4 - 0.0 - - - - - - -
27/01:30pm 26.3 N 8 11 1017.5 - 0.0 - - - - - - -
27/01:00pm 26.4 N 9 11 1017.9 - 0.0 - - - - - - -
27/12:30pm 25.7 NNE 9 11 1018.5 - 0.0 - - - - - - -
27/12:00pm 25.9 NNE 10 13 1019.1 - 0.0 - - - - - - -
27/11:30am 25.7 ENE 13 18 1019.3 - 0.0 - - - - - - -
27/11:00am 24.6 ENE 12 16 1019.8 - 0.0 - - - - - - -
27/10:30am 23.2 ENE 14 17 1020.2 - 0.0 - - - - - - -
27/10:00am 22.4 ENE 17 21 1020.2 - 0.0 - - - - - - -
27/09:30am 20.8 E 12 15 1020.1 - 0.0 - - - - - - -
27/09:00am 18.9 ESE 11 13 1020.4 - 0.0 - - - - - - -
27/08:30am 16.8 SE 11 13 1020.4 - 0.0 - - - - - - -
27/08:00am 16.0 ESE 11 13 1020.2 - 0.0 - - - - - - -
27/07:30am 14.4 ESE 10 12 1019.7 - 0.0 - - - - - - -
27/07:00am 13.9 ESE 11 13 1019.6 - 0.0 - - - - - - -
27/06:30am 13.3 ESE 10 11 1019.0 - 0.0 - - - - - - -
27/06:00am 14.0 ESE 11 12 1019.0 - 0.0 - - - - - - -
27/05:30am 14.0 ESE 9 10 1019.0 - 0.0 - - - - - - -
27/05:00am 14.1 ESE 8 9 1019.0 - 0.0 - - - - - - -
27/04:30am 14.1 ESE 9 10 1018.8 - 0.0 - - - - - - -
27/04:00am 14.3 ESE 7 8 1018.7 - 0.0 - - - - - - -
27/03:30am 14.6 ESE 8 8 1018.8 - 0.0 - - - - - - -
27/03:00am 15.5 E 7 8 1018.8 - 0.0 - - - - - - -
27/02:30am 17.1 E 9 9 1018.8 - 0.0 - - - - - - -
27/02:00am 17.7 ENE 10 11 1019.0 - 0.0 - - - - - - -
27/01:30am 17.4 E 9 11 1018.8 - 0.0 - - - - - - -
27/01:00am 17.8 E 11 13 1018.8 - 0.0 - - - - - - -
27/12:30am 18.3 E 12 14 1018.7 - 0.0 - - - - - - -
27/12:00am 19.0 E 13 15 1018.5 - 0.0 - - - - - - -
 
Date/Time
WST
Temp
°C
Wind Pressure Rain since
9am
mm
Weather Cloud Vis
km
Sea
Height
m
Swell
Dir  Spd
kts
Gust
kts
hPa Trend Height
m
Period
s
Dir
26/11:30pm 20.0 ESE 16 21 1018.6 - 0.0 - - - - - - -
26/11:00pm 20.2 ESE 14 17 1018.6 - 0.0 - - - - - - -
26/10:30pm 19.8 SE 13 16 1018.6 - 0.0 - - - - - - -
26/10:00pm 19.4 SSE 10 12 1018.5 - 0.0 - - - - - - -
26/09:30pm 19.7 SSE 10 12 1018.9 - 0.0 - - - - - - -
26/09:00pm 20.3 SSE 10 13 1018.8 - 0.0 - - - - - - -
26/08:30pm 20.5 SSE 10 11 1018.9 - 0.0 - - - - - - -
26/08:00pm 21.2 SSE 11 13 1018.8 - 0.0 - - - - - - -
26/07:30pm 21.6 SSE 10 11 1018.5 - 0.0 - - - - - - -
26/07:00pm 21.9 SSE 9 11 1018.3 - 0.0 - - - - - - -
26/06:30pm 23.2 SSE 11 13 1017.9 - 0.0 - - - - - - -
26/06:00pm 23.0 SW 5 8 1017.5 - 0.0 - - - - - - -
26/05:30pm 23.3 W 9 13 1017.2 - 0.0 - - - - - - -
26/05:00pm 23.5 W 12 15 1017.1 - 0.0 - - - - - - -
26/04:30pm 24.3 W 12 15 1016.9 - 0.0 - - - - - - -
26/04:00pm 25.2 WNW 11 14 1016.9 - 0.0 - - - - - - -
26/03:30pm 26.8 NW 8 10 1017.0 - 0.0 - - - - - - -
26/03:00pm 26.4 NW 9 11 1017.1 - 0.0 - - - - - - -
26/02:30pm 27.8 NNW 8 11 1016.8 - 0.0 - - - - - - -
26/02:00pm 28.3 NNE 6 9 1016.9 - 0.0 - - - - - - -
26/01:30pm 28.0 NE 5 8 1017.3 - 0.0 - - - - - - -
26/01:00pm 28.1 ENE 7 9 1017.8 - 0.0 - - - - - - -
26/12:30pm 27.4 E 8 11 1018.3 - 0.0 - - - - - - -
26/12:00pm 26.6 SE 7 12 1019.0 - 0.0 - - - - - - -
26/11:30am 25.8 SE 9 11 1019.5 - 0.0 - - - - - - -
26/11:00am 24.3 SE 8 11 1019.9 - 0.0 - - - - - - -
26/10:30am 24.7 SE 8 11 1020.0 - 0.0 - - - - - - -
26/10:00am 23.2 SE 10 12 1020.2 - 0.0 - - - - - - -
26/09:30am 22.2 SE 10 12 1020.2 - 0.0 - - - - - - -
26/09:00am 20.9 SE 11 13 1020.2 - 0.0 - - - - - - -
26/08:30am 20.5 SE 12 15 1020.0 - 0.0 - - - - - - -
26/08:00am 19.6 SE 10 13 1019.6 - 0.0 - - - - - - -
26/07:30am 18.4 SE 8 11 1019.2 - 0.0 - - - - - - -
26/07:00am 17.7 SE 7 8 1018.8 - 0.0 - - - - - - -
26/06:30am 18.2 SE 10 13 1018.6 - 0.0 - - - - - - -
26/06:00am 18.2 ESE 8 9 1018.3 - 0.0 - - - - - - -
26/05:30am 18.5 SE 11 13 1018.1 - 0.0 - - - - - - -
26/05:00am 18.3 SSE 10 12 1018.0 - 0.0 - - - - - - -
26/04:30am 18.4 SE 9 13 1017.9 - 0.0 - - - - - - -
26/04:00am 18.7 SSE 11 13 1018.2 - 0.0 - - - - - - -
26/03:30am 18.3 SSE 9 11 1018.0 - 0.0 - - - - - - -
26/03:00am 18.5 SSE 8 10 1018.0 - 0.0 - - - - - - -
26/02:30am 18.4 SSE 7 7 1017.9 - 0.0 - - - - - - -
26/02:00am 18.9 SSE 7 9 1018.2 - 0.0 - - - - - - -
26/01:30am 19.2 SE 7 8 1018.3 - 0.0 - - - - - - -
26/01:00am 19.5 SE 7 8 1018.5 - 0.0 - - - - - - -
26/12:30am 20.4 SSW 7 9 1018.7 - 0.0 - - - - - - -
26/12:00am 20.4 S 9 11 1018.8 - 0.0 - - - - - - -
 
Date/Time
WST
Temp
°C
Wind Pressure Rain since
9am
mm
Weather Cloud Vis
km
Sea
Height
m
Swell
Dir  Spd
kts
Gust
kts
hPa Trend Height
m
Period
s
Dir
25/11:30pm 20.8 S 8 9 1018.9 - 0.0 - - - - - - -
25/11:00pm 21.2 SSW 7 9 1019.2 - 0.0 - - - - - - -
25/10:30pm 21.0 SSW 8 9 1019.3 - 0.0 - - - - - - -
25/10:00pm 20.7 SSW 8 9 1019.2 - 0.0 - - - - - - -
25/09:30pm 20.6 SSW 7 8 1019.1 - 0.0 - - - - - - -
25/09:00pm 21.0 SSW 7 8 1019.1 - 0.0 - - - - - - -
25/08:30pm 21.3 SSW 7 7 1018.8 - 0.0 - - - - - - -

Other Formats:

Comma delimited format used in spreadsheet applications
http://www.bom.gov.au/fwo/IDW60701/IDW60701.95305.axf

JavaScript Object Notation format (JSON) in row-major order
http://www.bom.gov.au/fwo/IDW60701/IDW60701.95305.json